createdAt,value
2023-05-30T00:02:11.896Z,18.40
2023-05-30T00:04:45.731Z,18.40
2023-05-30T00:07:20.482Z,18.43
2023-05-30T00:09:53.684Z,18.45
2023-05-30T00:12:27.608Z,18.43
2023-05-30T00:15:04.423Z,18.36
2023-05-30T00:17:41.225Z,18.31
2023-05-30T00:20:17.610Z,18.28
2023-05-30T00:22:50.570Z,18.31
2023-05-30T00:25:23.701Z,18.30
2023-05-30T00:27:58.146Z,18.31
2023-05-30T00:30:30.838Z,18.31
2023-05-30T00:33:07.456Z,18.31
2023-05-30T00:35:39.811Z,18.36
2023-05-30T00:38:17.235Z,18.36
2023-05-30T00:40:49.405Z,18.36
2023-05-30T00:43:26.741Z,18.37
2023-05-30T00:46:24.467Z,18.37
2023-05-30T00:48:59.062Z,18.34
2023-05-30T00:51:37.611Z,18.33
2023-05-30T00:54:10.342Z,18.31
2023-05-30T00:56:45.014Z,18.27
2023-05-30T00:59:18.104Z,18.31
2023-05-30T01:01:50.636Z,18.27
2023-05-30T01:04:21.072Z,18.17
2023-05-30T01:06:52.487Z,18.16
2023-05-30T01:09:23.933Z,18.21
2023-05-30T01:11:57.221Z,18.24
2023-05-30T01:14:56.518Z,18.27
2023-05-30T01:21:41.157Z,18.31
2023-05-30T01:24:24.144Z,18.36
2023-05-30T01:27:29.997Z,18.33
2023-05-30T01:30:01.333Z,18.30
2023-05-30T01:32:32.419Z,18.30
2023-05-30T01:35:05.204Z,18.30
2023-05-30T01:37:38.445Z,18.26
2023-05-30T01:40:12.482Z,18.21
2023-05-30T01:42:45.919Z,18.14
2023-05-30T01:45:27.207Z,18.20
2023-05-30T01:48:11.420Z,18.18
2023-05-30T01:51:02.175Z,18.14
2023-05-30T01:53:45.254Z,18.14
2023-05-30T01:56:24.484Z,18.06
2023-05-30T01:58:55.248Z,18.08
2023-05-30T02:01:31.670Z,18.10
2023-05-30T02:04:12.031Z,18.06
2023-05-30T02:06:45.037Z,18.16
2023-05-30T02:09:16.532Z,18.16
2023-05-30T02:11:53.949Z,18.13
2023-05-30T02:14:27.297Z,18.11
2023-05-30T02:16:59.249Z,18.06
2023-05-30T02:19:33.671Z,18.00
2023-05-30T02:22:04.900Z,17.96
2023-05-30T02:24:44.271Z,17.94
2023-05-30T02:27:25.506Z,17.93
2023-05-30T02:29:57.151Z,17.91
2023-05-30T02:32:31.106Z,17.87
2023-05-30T02:35:02.347Z,17.86
2023-05-30T02:37:33.813Z,17.80
2023-05-30T02:40:05.831Z,17.77
2023-05-30T02:42:37.681Z,17.77
2023-05-30T02:45:09.137Z,17.73
2023-05-30T02:47:43.763Z,17.73
2023-05-30T02:50:14.788Z,17.73
2023-05-30T02:52:46.273Z,17.73
2023-05-30T02:55:17.319Z,17.70
2023-05-30T02:58:17.661Z,17.66
2023-05-30T03:01:03.415Z,17.65
2023-05-30T03:03:37.428Z,17.70
2023-05-30T03:06:24.838Z,17.69
2023-05-30T03:09:12.109Z,17.67
2023-05-30T03:11:43.392Z,17.62
2023-05-30T03:14:14.189Z,17.61
2023-05-30T03:16:46.236Z,17.55
2023-05-30T03:19:19.902Z,17.52
2023-05-30T03:21:56.866Z,17.49
2023-05-30T03:24:30.789Z,17.42
2023-05-30T03:27:02.784Z,17.40
2023-05-30T03:29:33.690Z,17.36
2023-05-30T03:32:10.999Z,17.33
2023-05-30T03:34:48.537Z,17.29
2023-05-30T03:37:23.760Z,17.22
2023-05-30T03:39:55.690Z,17.15
2023-05-30T03:42:26.266Z,17.05
2023-05-30T03:44:57.957Z,17.00
2023-05-30T03:47:29.296Z,16.94
2023-05-30T03:50:04.099Z,16.91
2023-05-30T03:52:35.695Z,16.91
2023-05-30T03:55:09.665Z,16.85
2023-05-30T03:57:41.844Z,16.80
2023-05-30T04:00:20.553Z,16.82
2023-05-30T04:02:51.656Z,16.81
2023-05-30T04:05:22.957Z,16.72
2023-05-30T04:07:53.138Z,16.71
2023-05-30T04:10:24.670Z,16.67
2023-05-30T04:12:55.414Z,16.61
2023-05-30T04:15:25.787Z,16.57
2023-05-30T04:18:04.100Z,16.54
2023-05-30T04:20:37.810Z,16.49
2023-05-30T04:23:10.536Z,16.46
2023-05-30T04:25:46.217Z,16.37
2023-05-30T04:28:22.332Z,16.39
2023-05-30T04:30:54.141Z,16.36
2023-05-30T04:33:28.670Z,16.33
2023-05-30T04:36:01.326Z,16.29
2023-05-30T04:38:35.846Z,16.29
2023-05-30T04:41:07.360Z,16.33
2023-05-30T04:44:06.681Z,16.36
2023-05-30T04:46:39.423Z,16.30
2023-05-30T04:49:11.688Z,16.27
2023-05-30T04:51:42.255Z,16.26
2023-05-30T04:54:14.523Z,16.21
2023-05-30T04:56:45.896Z,16.20
2023-05-30T04:59:17.105Z,16.21
2023-05-30T05:01:50.062Z,16.24
2023-05-30T05:04:21.103Z,16.20
2023-05-30T05:06:52.927Z,16.21
2023-05-30T05:09:24.841Z,16.19
2023-05-30T05:11:57.501Z,16.20
2023-05-30T05:14:28.567Z,16.23
2023-05-30T05:17:00.878Z,16.21
2023-05-30T05:19:33.857Z,16.17
2023-05-30T05:22:06.330Z,16.17
2023-05-30T05:24:37.841Z,16.13
2023-05-30T05:27:09.287Z,16.16
2023-05-30T05:29:42.377Z,16.17
2023-05-30T05:32:13.495Z,16.20
2023-05-30T05:34:46.950Z,16.17
2023-05-30T05:37:18.918Z,16.16
2023-05-30T05:39:53.119Z,16.16
2023-05-30T05:42:24.365Z,16.17
2023-05-30T05:44:56.950Z,16.19
2023-05-30T05:47:30.191Z,16.17
2023-05-30T05:50:01.433Z,16.19
2023-05-30T05:52:33.540Z,16.20
2023-05-30T05:55:05.800Z,16.17
2023-05-30T05:57:37.079Z,16.17
2023-05-30T06:00:11.585Z,16.16
2023-05-30T06:02:45.251Z,16.17
2023-05-30T06:05:15.740Z,16.16
2023-05-30T06:07:46.713Z,16.21
2023-05-30T06:10:19.932Z,16.21
2023-05-30T06:12:51.701Z,16.20
2023-05-30T06:15:22.455Z,16.21
2023-05-30T06:17:53.270Z,16.19
2023-05-30T06:20:23.954Z,16.21
2023-05-30T06:22:54.262Z,16.24
2023-05-30T06:25:25.671Z,16.20
2023-05-30T06:27:56.298Z,16.19
2023-05-30T06:30:27.021Z,16.16
2023-05-30T06:32:59.890Z,16.16
2023-05-30T06:35:30.908Z,16.10
2023-05-30T06:38:01.949Z,16.14
2023-05-30T06:40:32.377Z,16.24
2023-05-30T06:43:02.577Z,16.29
2023-05-30T06:45:34.902Z,16.31
2023-05-30T06:48:06.488Z,16.34
2023-05-30T06:50:38.218Z,16.39
2023-05-30T06:53:09.222Z,16.43
2023-05-30T06:55:40.449Z,16.46
2023-05-30T06:58:11.699Z,16.53
2023-05-30T07:00:42.888Z,16.59
2023-05-30T07:03:16.588Z,16.61
2023-05-30T07:05:49.025Z,16.59
2023-05-30T07:08:20.175Z,16.65
2023-05-30T07:10:51.366Z,16.65
2023-05-30T07:13:22.340Z,16.68
2023-05-30T07:15:54.222Z,16.68
2023-05-30T07:18:25.803Z,16.70
2023-05-30T07:20:56.505Z,16.71
2023-05-30T07:23:28.096Z,16.71
2023-05-30T07:25:59.225Z,16.70
2023-05-30T07:28:31.403Z,16.70
2023-05-30T07:31:03.745Z,16.70
2023-05-30T07:33:33.968Z,16.70
2023-05-30T07:36:05.648Z,16.70
2023-05-30T07:38:37.266Z,16.67
2023-05-30T07:41:08.892Z,16.65
2023-05-30T07:44:03.305Z,16.68
2023-05-30T07:46:33.901Z,16.77
2023-05-30T07:49:04.515Z,16.74
2023-05-30T07:51:34.903Z,16.74
2023-05-30T07:54:06.107Z,16.72
2023-05-30T07:56:38.196Z,16.72
2023-05-30T07:59:08.730Z,16.75
2023-05-30T08:01:38.836Z,16.70
2023-05-30T08:04:10.004Z,16.74
2023-05-30T08:06:41.606Z,16.74
2023-05-30T08:09:12.699Z,16.74
2023-05-30T08:11:44.131Z,16.80
2023-05-30T08:14:14.340Z,16.71
2023-05-30T08:16:46.200Z,16.64
2023-05-30T08:19:16.731Z,16.64
2023-05-30T08:21:48.477Z,16.60
2023-05-30T08:24:20.295Z,16.60
2023-05-30T08:26:51.833Z,16.59
2023-05-30T08:29:23.224Z,16.56
2023-05-30T08:31:53.570Z,16.53
2023-05-30T08:34:27.981Z,16.47
2023-05-30T08:36:58.456Z,16.50
2023-05-30T08:39:29.841Z,16.56
2023-05-30T08:42:01.055Z,16.57
2023-05-30T08:44:31.896Z,16.57
2023-05-30T08:47:09.761Z,16.56
2023-05-30T08:49:45.692Z,16.56
2023-05-30T08:52:19.600Z,16.53
2023-05-30T08:55:11.395Z,16.56
2023-05-30T08:58:02.032Z,16.51
2023-05-30T09:00:36.362Z,16.51
2023-05-30T09:03:09.133Z,16.43
2023-05-30T09:05:41.887Z,16.37
2023-05-30T09:08:14.640Z,16.41
2023-05-30T09:10:51.432Z,16.34
2023-05-30T09:13:23.845Z,16.40
2023-05-30T09:15:55.769Z,16.39
2023-05-30T09:18:26.054Z,16.44
2023-05-30T09:20:57.812Z,16.47
2023-05-30T09:23:29.310Z,16.50
2023-05-30T09:26:03.537Z,16.60
2023-05-30T09:28:36.164Z,16.65
2023-05-30T09:31:08.292Z,16.70
2023-05-30T09:33:47.637Z,16.77
2023-05-30T09:36:23.657Z,16.78
2023-05-30T09:39:03.720Z,16.84
2023-05-30T09:41:35.576Z,16.87
2023-05-30T09:44:08.823Z,16.85
2023-05-30T09:46:45.019Z,16.82
2023-05-30T09:49:17.218Z,16.87
2023-05-30T09:51:48.249Z,16.89
2023-05-30T09:54:20.763Z,16.88
2023-05-30T09:56:52.453Z,16.89
2023-05-30T09:59:28.761Z,16.82
2023-05-30T10:01:59.753Z,16.78
2023-05-30T10:04:30.628Z,16.71
2023-05-30T10:07:01.422Z,16.71
2023-05-30T10:09:31.828Z,16.68
2023-05-30T10:12:05.874Z,16.64
2023-05-30T10:14:36.893Z,16.63
2023-05-30T10:17:10.647Z,16.63
2023-05-30T10:19:59.508Z,16.70
2023-05-30T10:22:32.884Z,16.67
2023-05-30T10:25:06.004Z,16.74
2023-05-30T10:27:43.249Z,16.81
2023-05-30T10:30:17.729Z,16.84
2023-05-30T10:32:56.881Z,16.85
2023-05-30T10:35:28.269Z,16.89
2023-05-30T10:38:02.270Z,16.95
2023-05-30T10:41:06.957Z,17.02
2023-05-30T10:44:07.526Z,17.07
2023-05-30T10:47:23.741Z,17.14
2023-05-30T10:49:57.398Z,17.12
2023-05-30T10:52:36.113Z,17.15
2023-05-30T10:55:16.731Z,17.26
2023-05-30T10:57:46.962Z,17.33
2023-05-30T11:00:27.068Z,17.40
2023-05-30T11:02:59.700Z,17.43
2023-05-30T11:05:36.867Z,17.50
2023-05-30T11:08:08.857Z,17.63
2023-05-30T11:10:40.217Z,17.69
2023-05-30T11:13:14.912Z,17.76
2023-05-30T11:15:49.373Z,17.80
2023-05-30T11:18:22.514Z,17.83
2023-05-30T11:20:58.308Z,17.89
2023-05-30T11:23:32.610Z,17.94
2023-05-30T11:26:03.810Z,18.07
2023-05-30T11:28:41.322Z,18.10
2023-05-30T11:31:22.499Z,18.20
2023-05-30T11:33:59.283Z,18.26
2023-05-30T11:36:30.525Z,18.37
2023-05-30T11:39:01.543Z,18.44
2023-05-30T11:41:34.230Z,18.51
2023-05-30T11:44:08.336Z,18.64
2023-05-30T11:46:39.893Z,18.78
2023-05-30T11:49:11.224Z,18.88
2023-05-30T11:51:43.593Z,18.95
2023-05-30T11:54:16.437Z,18.99
2023-05-30T11:56:49.558Z,19.09
2023-05-30T11:59:24.782Z,19.27
2023-05-30T12:02:03.850Z,19.37
2023-05-30T12:04:37.341Z,19.45
2023-05-30T12:07:11.662Z,19.60
2023-05-30T12:09:45.109Z,19.63
2023-05-30T12:12:20.188Z,19.77
2023-05-30T12:14:53.677Z,19.97
2023-05-30T12:20:31.263Z,20.52
2023-05-30T12:23:14.503Z,20.69
2023-05-30T12:26:04.793Z,21.20
2023-05-30T12:31:26.892Z,21.46
2023-05-30T12:34:03.127Z,21.38
2023-05-30T12:36:33.406Z,21.50
2023-05-30T12:39:05.224Z,21.64
2023-05-30T12:41:39.836Z,21.85
2023-05-30T12:44:17.791Z,21.78
2023-05-30T12:46:58.078Z,21.92
2023-05-30T12:49:30.638Z,22.15
2023-05-30T12:52:04.434Z,22.26
2023-05-30T12:54:36.989Z,22.51
2023-05-30T12:57:10.636Z,22.63
2023-05-30T12:59:42.335Z,22.42
2023-05-30T13:02:18.053Z,22.59
2023-05-30T13:05:14.016Z,22.62
2023-05-30T13:07:45.989Z,22.55
2023-05-30T13:10:16.981Z,22.67
2023-05-30T13:12:48.703Z,22.55
2023-05-30T13:15:19.158Z,22.38
2023-05-30T13:17:50.030Z,22.22
2023-05-30T13:20:21.312Z,22.18
2023-05-30T13:22:52.385Z,22.38
2023-05-30T13:25:23.155Z,22.36
2023-05-30T13:27:55.077Z,22.45
2023-05-30T13:30:27.283Z,22.32
2023-05-30T13:32:58.997Z,22.51
2023-05-30T13:35:29.523Z,22.53
2023-05-30T13:38:05.086Z,22.77
2023-05-30T13:40:35.540Z,22.86
2023-05-30T13:43:10.026Z,22.96
2023-05-30T13:45:40.768Z,23.20
2023-05-30T13:48:12.425Z,23.30
2023-05-30T13:50:45.555Z,23.50
2023-05-30T13:53:24.773Z,23.53
2023-05-30T13:56:01.967Z,23.69
2023-05-30T13:58:32.984Z,23.45
2023-05-30T14:01:08.133Z,23.55
2023-05-30T14:03:39.844Z,23.76
2023-05-30T14:06:10.431Z,24.05
2023-05-30T14:08:46.061Z,24.01
2023-05-30T14:11:17.659Z,24.01
2023-05-30T14:13:48.913Z,24.09
2023-05-30T14:16:19.561Z,24.05
2023-05-30T14:18:50.436Z,23.98
2023-05-30T14:21:21.564Z,24.02
2023-05-30T14:23:53.537Z,23.88
2023-05-30T14:26:25.178Z,23.94
2023-05-30T14:28:56.462Z,24.01
2023-05-30T14:31:27.707Z,24.04
2023-05-30T14:33:58.528Z,24.16
2023-05-30T14:36:29.671Z,24.01
2023-05-30T14:39:01.100Z,24.12
2023-05-30T14:41:34.014Z,24.01
2023-05-30T14:44:05.992Z,24.08
2023-05-30T14:46:37.038Z,24.04
2023-05-30T14:49:09.985Z,23.94
2023-05-30T14:51:41.734Z,23.94
2023-05-30T14:54:12.679Z,23.85
2023-05-30T14:56:44.888Z,23.74
2023-05-30T14:59:19.107Z,23.62
2023-05-30T15:01:50.386Z,23.74
2023-05-30T15:04:22.372Z,23.74
2023-05-30T15:06:52.684Z,23.78
2023-05-30T15:09:23.464Z,23.85
2023-05-30T15:11:54.789Z,23.82
2023-05-30T15:14:25.682Z,23.85
2023-05-30T15:16:56.960Z,24.01
2023-05-30T15:19:28.424Z,23.99
2023-05-30T15:22:00.413Z,23.99
2023-05-30T15:24:32.499Z,23.94
2023-05-30T15:27:04.558Z,23.94
2023-05-30T15:29:37.570Z,23.82
2023-05-30T15:32:11.492Z,23.94
2023-05-30T15:34:46.154Z,23.94
2023-05-30T15:37:16.385Z,23.85
2023-05-30T15:39:46.541Z,23.82
2023-05-30T15:42:16.945Z,23.68
2023-05-30T15:44:48.588Z,23.67
2023-05-30T15:47:19.648Z,23.64
2023-05-30T15:49:54.620Z,23.64
2023-05-30T15:52:25.560Z,24.12
2023-05-30T15:55:01.165Z,23.89
2023-05-30T15:57:31.639Z,23.69
2023-05-30T16:00:02.744Z,23.71
2023-05-30T16:02:42.293Z,23.74
2023-05-30T16:05:14.417Z,23.65
2023-05-30T16:07:48.589Z,23.64
2023-05-30T16:10:20.325Z,23.61
2023-05-30T16:12:56.446Z,23.61
2023-05-30T16:15:28.255Z,23.79
2023-05-30T16:17:59.502Z,23.68
2023-05-30T16:20:31.493Z,23.65
2023-05-30T16:23:02.416Z,23.62
2023-05-30T16:25:33.446Z,23.67
2023-05-30T16:28:03.702Z,23.59
2023-05-30T16:30:35.753Z,23.55
2023-05-30T16:33:25.314Z,23.67
2023-05-30T16:36:10.595Z,23.62
2023-05-30T16:38:44.352Z,23.57
2023-05-30T16:41:14.888Z,23.61
2023-05-30T16:46:31.452Z,23.64
2023-05-30T16:49:05.250Z,23.59
2023-05-30T16:51:36.585Z,23.62
2023-05-30T16:54:08.979Z,23.44
2023-05-30T16:56:42.165Z,23.45
2023-05-30T16:59:13.316Z,23.51
2023-05-30T17:01:43.756Z,23.62
2023-05-30T17:04:15.746Z,23.48
2023-05-30T17:06:46.901Z,23.51
2023-05-30T17:09:17.918Z,23.48
2023-05-30T17:11:49.894Z,23.40
2023-05-30T17:14:21.385Z,23.47
2023-05-30T17:16:52.880Z,23.38
2023-05-30T17:19:29.196Z,23.35
2023-05-30T17:22:00.472Z,23.30
2023-05-30T17:24:41.928Z,23.25
2023-05-30T17:27:12.786Z,23.30
2023-05-30T17:29:44.325Z,23.34
2023-05-30T17:32:17.279Z,23.15
2023-05-30T17:34:48.235Z,23.18
2023-05-30T17:37:19.575Z,23.13
2023-05-30T17:39:51.128Z,23.21
2023-05-30T17:42:22.667Z,23.20
2023-05-30T17:44:53.136Z,23.20
2023-05-30T17:47:23.175Z,23.14
2023-05-30T17:49:55.074Z,23.03
2023-05-30T17:52:25.565Z,23.02
2023-05-30T17:54:56.384Z,23.03
2023-05-30T17:57:28.165Z,22.97
2023-05-30T17:59:59.745Z,22.84
2023-05-30T18:02:32.207Z,22.74
2023-05-30T18:05:03.104Z,22.76
2023-05-30T18:07:34.236Z,22.73
2023-05-30T18:10:05.379Z,22.72
2023-05-30T18:12:37.492Z,22.69
2023-05-30T18:15:10.437Z,22.64
2023-05-30T18:17:41.693Z,22.62
2023-05-30T18:20:13.456Z,22.72
2023-05-30T18:22:44.684Z,22.70
2023-05-30T18:25:15.816Z,22.60
2023-05-30T18:27:46.661Z,22.55
2023-05-30T18:30:18.195Z,22.55
2023-05-30T18:32:49.642Z,22.53
2023-05-30T18:35:20.616Z,22.41
2023-05-30T18:37:50.974Z,22.32
2023-05-30T18:40:21.124Z,22.28
2023-05-30T18:42:52.162Z,22.25
2023-05-30T18:45:23.111Z,22.28
2023-05-30T18:47:54.265Z,22.26
2023-05-30T18:50:25.699Z,22.23
2023-05-30T18:52:56.963Z,22.23
2023-05-30T18:55:28.235Z,22.26
2023-05-30T18:58:00.046Z,22.33
2023-05-30T19:00:32.196Z,22.25
2023-05-30T19:03:03.102Z,22.23
2023-05-30T19:05:33.485Z,22.22
2023-05-30T19:08:04.557Z,22.18
2023-05-30T19:10:41.102Z,22.19
2023-05-30T19:13:11.459Z,22.18
2023-05-30T19:15:41.798Z,22.12
2023-05-30T19:18:12.106Z,22.09
2023-05-30T19:20:43.097Z,21.98
2023-05-30T19:23:13.778Z,21.92
2023-05-30T19:25:45.052Z,21.87
2023-05-30T19:28:15.763Z,21.80
2023-05-30T19:30:46.600Z,21.77
2023-05-30T19:33:18.088Z,21.77
2023-05-30T19:35:51.306Z,21.75
2023-05-30T19:38:23.238Z,21.62
2023-05-30T19:40:54.513Z,21.57
2023-05-30T19:43:25.689Z,21.55
2023-05-30T19:45:57.027Z,21.47
2023-05-30T19:48:27.501Z,21.47
2023-05-30T19:50:58.519Z,21.41
2023-05-30T19:53:29.953Z,21.38
2023-05-30T19:56:02.888Z,21.38
2023-05-30T19:58:33.310Z,21.33
2023-05-30T20:01:04.387Z,21.24
2023-05-30T20:03:35.572Z,21.26
2023-05-30T20:06:07.761Z,21.23
2023-05-30T20:08:40.557Z,21.16
2023-05-30T20:11:14.205Z,21.17
2023-05-30T20:13:47.195Z,21.14
2023-05-30T20:16:19.533Z,21.07
2023-05-30T20:18:53.933Z,21.06
2023-05-30T20:21:24.268Z,21.02
2023-05-30T20:23:55.104Z,21.00
2023-05-30T20:26:25.347Z,20.97
2023-05-30T20:28:57.955Z,20.92
2023-05-30T20:31:32.495Z,20.90
2023-05-30T20:34:04.228Z,20.92
2023-05-30T20:36:36.367Z,20.87
2023-05-30T20:39:07.812Z,20.85
2023-05-30T20:41:42.292Z,20.82
2023-05-30T20:44:12.841Z,20.77
2023-05-30T20:46:44.412Z,20.76
2023-05-30T20:49:15.562Z,20.75
2023-05-30T20:51:47.345Z,20.76
2023-05-30T20:54:17.895Z,20.76
2023-05-30T20:56:49.162Z,20.76
2023-05-30T20:59:22.695Z,20.75
2023-05-30T21:01:53.140Z,20.73
2023-05-30T21:04:24.238Z,20.69
2023-05-30T21:06:56.375Z,20.71
2023-05-30T21:09:29.727Z,20.64
2023-05-30T21:12:00.222Z,20.68
2023-05-30T21:14:30.285Z,20.69
2023-05-30T21:17:01.993Z,20.59
2023-05-30T21:19:32.859Z,20.53
2023-05-30T21:22:04.723Z,20.48
2023-05-30T21:24:36.483Z,20.46
2023-05-30T21:27:09.372Z,20.41
2023-05-30T21:29:43.492Z,20.36
2023-05-30T21:32:16.382Z,20.31
2023-05-30T21:34:47.688Z,20.26
2023-05-30T21:37:21.295Z,20.25
2023-05-30T21:39:53.202Z,20.20
2023-05-30T21:42:23.454Z,20.17
2023-05-30T21:44:54.268Z,20.14
2023-05-30T21:47:25.209Z,20.08
2023-05-30T21:49:58.341Z,20.05
2023-05-30T21:52:28.750Z,20.04
2023-05-30T21:54:59.814Z,20.00
2023-05-30T21:57:31.515Z,19.98
2023-05-30T22:00:05.971Z,19.98
2023-05-30T22:02:37.970Z,19.91
2023-05-30T22:05:09.843Z,19.87
2023-05-30T22:07:41.012Z,19.87
2023-05-30T22:10:12.942Z,19.83
2023-05-30T22:12:45.357Z,19.78
2023-05-30T22:15:19.552Z,19.74
2023-05-30T22:17:52.882Z,19.70
2023-05-30T22:20:24.272Z,19.67
2023-05-30T22:22:56.081Z,19.62
2023-05-30T22:25:32.610Z,19.57
2023-05-30T22:28:04.619Z,19.57
2023-05-30T22:30:35.683Z,19.54
2023-05-30T22:33:08.458Z,19.53
2023-05-30T22:35:40.037Z,19.52
2023-05-30T22:38:11.544Z,19.52
2023-05-30T22:40:44.255Z,19.52
2023-05-30T22:43:14.658Z,19.53
2023-05-30T22:45:46.208Z,19.53
2023-05-30T22:48:19.079Z,19.52
2023-05-30T22:50:49.497Z,19.47
2023-05-30T22:53:20.791Z,19.47
2023-05-30T22:56:10.568Z,19.52
2023-05-30T22:58:41.306Z,19.46
2023-05-30T23:01:13.633Z,19.43
2023-05-30T23:03:44.569Z,19.40
2023-05-30T23:06:16.030Z,19.40
2023-05-30T23:08:55.623Z,19.34
2023-05-30T23:11:28.451Z,19.49
2023-05-30T23:14:01.941Z,19.33
2023-05-30T23:16:36.732Z,19.30
2023-05-30T23:19:08.123Z,19.26
2023-05-30T23:21:39.507Z,19.22
2023-05-30T23:24:12.099Z,19.23
2023-05-30T23:26:46.664Z,19.24
2023-05-30T23:29:19.803Z,19.23
2023-05-30T23:31:51.872Z,19.18
2023-05-30T23:34:27.333Z,19.15
2023-05-30T23:37:00.700Z,19.16
2023-05-30T23:39:39.754Z,19.10
2023-05-30T23:42:12.800Z,19.12
2023-05-30T23:44:44.024Z,19.10
2023-05-30T23:47:16.699Z,19.05
2023-05-30T23:49:49.671Z,19.06
2023-05-30T23:52:25.306Z,19.00
2023-05-30T23:54:58.285Z,19.00
2023-05-30T23:57:28.703Z,18.99
